sensor_id;sensor_type;location;lat;lon;timestamp;pressure;altitude;pressure_sealevel;temperature;humidity
64139;BME280;50435;43.700;-79.318;2023-05-23T00:01:03;101067.74;;;18.08;28.29
64139;BME280;50435;43.700;-79.318;2023-05-23T00:03:30;101072.79;;;17.81;28.66
64139;BME280;50435;43.700;-79.318;2023-05-23T00:05:58;101076.29;;;17.85;28.58
64139;BME280;50435;43.700;-79.318;2023-05-23T00:08:26;101073.63;;;17.19;28.74
64139;BME280;50435;43.700;-79.318;2023-05-23T00:10:54;101073.76;;;17.84;28.84
64139;BME280;50435;43.700;-79.318;2023-05-23T00:13:22;101073.81;;;17.07;28.92
64139;BME280;50435;43.700;-79.318;2023-05-23T00:15:50;101074.32;;;17.53;28.97
64139;BME280;50435;43.700;-79.318;2023-05-23T00:18:17;101076.54;;;16.88;29.08
64139;BME280;50435;43.700;-79.318;2023-05-23T00:20:45;101079.12;;;17.44;29.29
64139;BME280;50435;43.700;-79.318;2023-05-23T00:23:13;101081.72;;;16.57;29.41
64139;BME280;50435;43.700;-79.318;2023-05-23T00:25:41;101085.46;;;17.04;29.29
64139;BME280;50435;43.700;-79.318;2023-05-23T00:28:08;101082.89;;;15.86;29.51
64139;BME280;50435;43.700;-79.318;2023-05-23T00:30:36;101081.50;;;17.29;29.48
64139;BME280;50435;43.700;-79.318;2023-05-23T00:33:04;101083.03;;;16.45;29.97
64139;BME280;50435;43.700;-79.318;2023-05-23T00:35:32;101079.20;;;16.64;30.03
64139;BME280;50435;43.700;-79.318;2023-05-23T00:37:59;101079.64;;;16.82;30.16
64139;BME280;50435;43.700;-79.318;2023-05-23T00:40:27;101080.50;;;16.54;30.19
64139;BME280;50435;43.700;-79.318;2023-05-23T00:42:55;101084.13;;;16.66;30.25
64139;BME280;50435;43.700;-79.318;2023-05-23T00:45:23;101085.67;;;16.34;30.50
64139;BME280;50435;43.700;-79.318;2023-05-23T00:47:50;101085.89;;;16.66;30.62
64139;BME280;50435;43.700;-79.318;2023-05-23T00:50:18;101084.86;;;15.69;30.71
64139;BME280;50435;43.700;-79.318;2023-05-23T00:52:47;101085.48;;;16.43;30.64
64139;BME280;50435;43.700;-79.318;2023-05-23T00:55:15;101088.28;;;15.88;30.76
64139;BME280;50435;43.700;-79.318;2023-05-23T00:57:43;101087.48;;;16.26;30.82
64139;BME280;50435;43.700;-79.318;2023-05-23T01:00:12;101090.31;;;15.07;30.86
64139;BME280;50435;43.700;-79.318;2023-05-23T01:02:43;101090.80;;;16.28;30.99
64139;BME280;50435;43.700;-79.318;2023-05-23T01:05:13;101094.15;;;15.80;31.16
64139;BME280;50435;43.700;-79.318;2023-05-23T01:07:41;101095.00;;;15.94;31.10
64139;BME280;50435;43.700;-79.318;2023-05-23T01:10:10;101093.62;;;14.60;31.21
64139;BME280;50435;43.700;-79.318;2023-05-23T01:12:43;101096.22;;;15.99;31.29
64139;BME280;50435;43.700;-79.318;2023-05-23T01:15:16;101094.96;;;14.90;31.52
64139;BME280;50435;43.700;-79.318;2023-05-23T01:17:49;101092.28;;;15.55;31.62
64139;BME280;50435;43.700;-79.318;2023-05-23T01:20:21;101093.46;;;15.52;31.58
64139;BME280;50435;43.700;-79.318;2023-05-23T01:23:06;101094.44;;;15.76;31.68
64139;BME280;50435;43.700;-79.318;2023-05-23T01:25:47;101096.72;;;15.42;31.58
64139;BME280;50435;43.700;-79.318;2023-05-23T01:28:22;101102.76;;;15.18;31.63
64139;BME280;50435;43.700;-79.318;2023-05-23T01:30:53;101106.67;;;15.62;31.64
64139;BME280;50435;43.700;-79.318;2023-05-23T01:33:24;101113.75;;;15.35;31.82
64139;BME280;50435;43.700;-79.318;2023-05-23T01:35:55;101115.94;;;15.43;32.08
64139;BME280;50435;43.700;-79.318;2023-05-23T01:38:24;101123.36;;;14.86;32.31
64139;BME280;50435;43.700;-79.318;2023-05-23T01:40:52;101129.06;;;15.38;32.27
64139;BME280;50435;43.700;-79.318;2023-05-23T01:43:20;101128.37;;;14.92;32.21
64139;BME280;50435;43.700;-79.318;2023-05-23T01:45:49;101130.77;;;15.32;32.31
64139;BME280;50435;43.700;-79.318;2023-05-23T01:48:17;101133.53;;;14.57;32.30
64139;BME280;50435;43.700;-79.318;2023-05-23T01:50:45;101135.12;;;15.53;32.41
64139;BME280;50435;43.700;-79.318;2023-05-23T01:53:15;101135.16;;;13.72;32.39
64139;BME280;50435;43.700;-79.318;2023-05-23T01:55:44;101132.03;;;15.03;32.73
64139;BME280;50435;43.700;-79.318;2023-05-23T01:58:12;101126.38;;;14.08;32.61
64139;BME280;50435;43.700;-79.318;2023-05-23T02:00:40;101126.01;;;14.94;32.70
64139;BME280;50435;43.700;-79.318;2023-05-23T02:03:07;101124.76;;;14.28;32.64
64139;BME280;50435;43.700;-79.318;2023-05-23T02:05:34;101128.06;;;14.91;32.84
64139;BME280;50435;43.700;-79.318;2023-05-23T02:08:02;101130.83;;;14.60;32.98
64139;BME280;50435;43.700;-79.318;2023-05-23T02:10:29;101128.99;;;14.83;32.91
64139;BME280;50435;43.700;-79.318;2023-05-23T02:12:57;101127.94;;;15.06;33.03
64139;BME280;50435;43.700;-79.318;2023-05-23T02:15:25;101131.33;;;14.56;33.34
64139;BME280;50435;43.700;-79.318;2023-05-23T02:17:52;101132.45;;;14.90;33.15
64139;BME280;50435;43.700;-79.318;2023-05-23T02:20:20;101135.60;;;14.40;33.10
64139;BME280;50435;43.700;-79.318;2023-05-23T02:22:47;101136.92;;;14.41;33.40
64139;BME280;50435;43.700;-79.318;2023-05-23T02:25:15;101133.62;;;13.65;33.55
64139;BME280;50435;43.700;-79.318;2023-05-23T02:27:42;101131.16;;;14.78;33.61
64139;BME280;50435;43.700;-79.318;2023-05-23T02:30:10;101133.34;;;13.35;33.59
64139;BME280;50435;43.700;-79.318;2023-05-23T02:32:37;101132.24;;;14.52;33.66
64139;BME280;50435;43.700;-79.318;2023-05-23T02:35:05;101131.27;;;13.95;33.97
64139;BME280;50435;43.700;-79.318;2023-05-23T02:37:32;101131.48;;;14.07;34.00
64139;BME280;50435;43.700;-79.318;2023-05-23T02:40:00;101139.59;;;14.59;33.78
64139;BME280;50435;43.700;-79.318;2023-05-23T02:42:27;101136.76;;;13.99;33.91
64139;BME280;50435;43.700;-79.318;2023-05-23T02:44:54;101134.44;;;14.21;34.04
64139;BME280;50435;43.700;-79.318;2023-05-23T02:47:21;101133.36;;;13.86;34.07
64139;BME280;50435;43.700;-79.318;2023-05-23T02:49:49;101136.02;;;14.38;34.10
64139;BME280;50435;43.700;-79.318;2023-05-23T02:52:17;101135.37;;;13.34;34.11
64139;BME280;50435;43.700;-79.318;2023-05-23T02:54:44;101133.74;;;14.14;34.30
64139;BME280;50435;43.700;-79.318;2023-05-23T02:57:11;101136.04;;;12.51;34.35
64139;BME280;50435;43.700;-79.318;2023-05-23T02:59:38;101129.16;;;13.97;34.57
64139;BME280;50435;43.700;-79.318;2023-05-23T03:02:05;101127.33;;;13.17;34.65
64139;BME280;50435;43.700;-79.318;2023-05-23T03:04:33;101128.60;;;13.78;34.71
64139;BME280;50435;43.700;-79.318;2023-05-23T03:07:00;101128.63;;;13.71;34.64
64139;BME280;50435;43.700;-79.318;2023-05-23T03:09:28;101127.03;;;13.36;34.82
64139;BME280;50435;43.700;-79.318;2023-05-23T03:11:55;101124.97;;;13.64;34.79
64139;BME280;50435;43.700;-79.318;2023-05-23T03:14:22;101126.41;;;12.83;35.08
64139;BME280;50435;43.700;-79.318;2023-05-23T03:16:50;101120.26;;;13.57;34.92
64139;BME280;50435;43.700;-79.318;2023-05-23T03:19:18;101124.44;;;13.29;34.90
64139;BME280;50435;43.700;-79.318;2023-05-23T03:21:46;101125.25;;;13.30;35.24
64139;BME280;50435;43.700;-79.318;2023-05-23T03:24:13;101129.03;;;11.85;35.52
64139;BME280;50435;43.700;-79.318;2023-05-23T03:26:40;101127.87;;;13.26;35.28
64139;BME280;50435;43.700;-79.318;2023-05-23T03:29:08;101129.18;;;12.20;35.39
64139;BME280;50435;43.700;-79.318;2023-05-23T03:31:36;101129.03;;;13.03;35.72
64139;BME280;50435;43.700;-79.318;2023-05-23T03:34:04;101127.13;;;13.32;35.22
64139;BME280;50435;43.700;-79.318;2023-05-23T03:36:31;101125.47;;;13.20;35.91
64139;BME280;50435;43.700;-79.318;2023-05-23T03:38:59;101124.17;;;12.96;36.26
64139;BME280;50435;43.700;-79.318;2023-05-23T03:41:26;101125.25;;;12.44;36.31
64139;BME280;50435;43.700;-79.318;2023-05-23T03:43:54;101124.44;;;13.05;35.94
64139;BME280;50435;43.700;-79.318;2023-05-23T03:46:21;101122.41;;;12.50;36.32
64139;BME280;50435;43.700;-79.318;2023-05-23T03:48:49;101123.91;;;12.47;36.39
64139;BME280;50435;43.700;-79.318;2023-05-23T03:51:16;101119.78;;;11.72;36.07
64139;BME280;50435;43.700;-79.318;2023-05-23T03:53:44;101123.57;;;12.58;35.87
64139;BME280;50435;43.700;-79.318;2023-05-23T03:56:11;101123.42;;;11.19;35.87
64139;BME280;50435;43.700;-79.318;2023-05-23T03:58:39;101120.37;;;13.13;35.76
64139;BME280;50435;43.700;-79.318;2023-05-23T04:01:06;101118.91;;;11.98;36.37
64139;BME280;50435;43.700;-79.318;2023-05-23T04:03:33;101120.79;;;12.54;35.92
64139;BME280;50435;43.700;-79.318;2023-05-23T04:06:01;101119.79;;;12.70;36.04
64139;BME280;50435;43.700;-79.318;2023-05-23T04:08:28;101118.96;;;12.34;36.32
64139;BME280;50435;43.700;-79.318;2023-05-23T04:10:55;101116.97;;;13.02;36.24
64139;BME280;50435;43.700;-79.318;2023-05-23T04:13:22;101117.26;;;12.25;36.65
64139;BME280;50435;43.700;-79.318;2023-05-23T04:15:50;101116.51;;;12.66;36.39
64139;BME280;50435;43.700;-79.318;2023-05-23T04:18:18;101113.73;;;12.39;36.50
64139;BME280;50435;43.700;-79.318;2023-05-23T04:20:46;101111.93;;;12.58;36.46
64139;BME280;50435;43.700;-79.318;2023-05-23T04:23:14;101113.71;;;11.07;36.96
64139;BME280;50435;43.700;-79.318;2023-05-23T04:25:41;101113.52;;;12.59;36.61
64139;BME280;50435;43.700;-79.318;2023-05-23T04:28:10;101109.47;;;10.94;36.98
64139;BME280;50435;43.700;-79.318;2023-05-23T04:30:38;101104.87;;;12.17;36.98
64139;BME280;50435;43.700;-79.318;2023-05-23T04:33:05;101110.20;;;11.41;36.78
64139;BME280;50435;43.700;-79.318;2023-05-23T04:35:33;101103.66;;;12.43;37.05
64139;BME280;50435;43.700;-79.318;2023-05-23T04:38:00;101104.55;;;12.31;37.07
64139;BME280;50435;43.700;-79.318;2023-05-23T04:40:28;101109.64;;;12.00;37.15
64139;BME280;50435;43.700;-79.318;2023-05-23T04:42:55;101110.83;;;12.20;36.99
64139;BME280;50435;43.700;-79.318;2023-05-23T04:45:23;101110.24;;;11.71;37.19
64139;BME280;50435;43.700;-79.318;2023-05-23T04:47:50;101118.08;;;12.08;37.53
64139;BME280;50435;43.700;-79.318;2023-05-23T04:50:17;101117.00;;;11.05;37.23
64139;BME280;50435;43.700;-79.318;2023-05-23T04:52:45;101118.49;;;12.23;37.40
64139;BME280;50435;43.700;-79.318;2023-05-23T04:55:12;101113.60;;;10.59;37.41
64139;BME280;50435;43.700;-79.318;2023-05-23T04:57:40;101107.79;;;11.98;37.58
64139;BME280;50435;43.700;-79.318;2023-05-23T05:00:08;101108.90;;;11.01;37.59
64139;BME280;50435;43.700;-79.318;2023-05-23T05:02:36;101111.68;;;12.09;37.15
64139;BME280;50435;43.700;-79.318;2023-05-23T05:05:04;101107.44;;;11.48;37.67
64139;BME280;50435;43.700;-79.318;2023-05-23T05:07:32;101107.62;;;11.86;37.64
64139;BME280;50435;43.700;-79.318;2023-05-23T05:09:59;101104.85;;;12.32;37.66
64139;BME280;50435;43.700;-79.318;2023-05-23T05:12:27;101106.26;;;11.75;37.92
64139;BME280;50435;43.700;-79.318;2023-05-23T05:14:54;101107.80;;;11.86;37.52
64139;BME280;50435;43.700;-79.318;2023-05-23T05:17:22;101101.72;;;11.66;37.76
64139;BME280;50435;43.700;-79.318;2023-05-23T05:19:50;101101.61;;;11.88;38.09
64139;BME280;50435;43.700;-79.318;2023-05-23T05:22:17;101104.25;;;10.66;37.94
64139;BME280;50435;43.700;-79.318;2023-05-23T05:24:45;101106.78;;;11.71;37.79
64139;BME280;50435;43.700;-79.318;2023-05-23T05:27:13;101107.01;;;10.37;37.55
64139;BME280;50435;43.700;-79.318;2023-05-23T05:29:40;101104.20;;;11.85;37.87
64139;BME280;50435;43.700;-79.318;2023-05-23T05:32:08;101102.11;;;10.78;38.03
64139;BME280;50435;43.700;-79.318;2023-05-23T05:34:35;101100.95;;;11.36;38.04
64139;BME280;50435;43.700;-79.318;2023-05-23T05:37:03;101099.10;;;11.85;37.78
64139;BME280;50435;43.700;-79.318;2023-05-23T05:39:31;101094.82;;;11.57;38.04
64139;BME280;50435;43.700;-79.318;2023-05-23T05:41:58;101094.40;;;12.01;37.94
64139;BME280;50435;43.700;-79.318;2023-05-23T05:44:26;101092.51;;;11.65;38.27
64139;BME280;50435;43.700;-79.318;2023-05-23T05:46:53;101096.80;;;11.87;38.30
64139;BME280;50435;43.700;-79.318;2023-05-23T05:49:21;101097.92;;;11.18;38.25
64139;BME280;50435;43.700;-79.318;2023-05-23T05:51:48;101099.86;;;11.59;38.23
64139;BME280;50435;43.700;-79.318;2023-05-23T05:54:15;101102.84;;;10.94;38.12
64139;BME280;50435;43.700;-79.318;2023-05-23T05:56:42;101097.09;;;11.59;37.96
64139;BME280;50435;43.700;-79.318;2023-05-23T05:59:10;101096.33;;;10.39;38.18
64139;BME280;50435;43.700;-79.318;2023-05-23T06:01:37;101092.47;;;11.44;38.32
64139;BME280;50435;43.700;-79.318;2023-05-23T06:04:05;101093.48;;;10.72;38.39
64139;BME280;50435;43.700;-79.318;2023-05-23T06:06:33;101087.65;;;11.45;38.47
64139;BME280;50435;43.700;-79.318;2023-05-23T06:09:00;101088.39;;;11.78;38.35
64139;BME280;50435;43.700;-79.318;2023-05-23T06:11:27;101089.89;;;11.14;38.47
64139;BME280;50435;43.700;-79.318;2023-05-23T06:13:55;101088.66;;;11.61;38.51
64139;BME280;50435;43.700;-79.318;2023-05-23T06:16:22;101090.04;;;10.98;38.59
64139;BME280;50435;43.700;-79.318;2023-05-23T06:18:49;101085.51;;;11.58;38.51
64139;BME280;50435;43.700;-79.318;2023-05-23T06:21:17;101085.17;;;10.62;38.44
64139;BME280;50435;43.700;-79.318;2023-05-23T06:23:44;101086.83;;;11.35;38.49
64139;BME280;50435;43.700;-79.318;2023-05-23T06:26:12;101091.23;;;10.57;38.50
64139;BME280;50435;43.700;-79.318;2023-05-23T06:28:40;101085.46;;;11.36;38.81
64139;BME280;50435;43.700;-79.318;2023-05-23T06:31:07;101086.97;;;10.27;38.56
64139;BME280;50435;43.700;-79.318;2023-05-23T06:33:34;101083.27;;;11.25;38.97
64139;BME280;50435;43.700;-79.318;2023-05-23T06:36:02;101080.40;;;11.29;38.88
64139;BME280;50435;43.700;-79.318;2023-05-23T06:38:31;101077.18;;;10.77;39.00
64139;BME280;50435;43.700;-79.318;2023-05-23T06:40:59;101078.01;;;11.48;38.53
64139;BME280;50435;43.700;-79.318;2023-05-23T06:43:26;101077.16;;;11.01;38.94
64139;BME280;50435;43.700;-79.318;2023-05-23T06:45:53;101077.76;;;11.43;38.65
64139;BME280;50435;43.700;-79.318;2023-05-23T06:48:20;101077.25;;;10.73;38.93
64139;BME280;50435;43.700;-79.318;2023-05-23T06:50:48;101072.49;;;11.25;38.87
64139;BME280;50435;43.700;-79.318;2023-05-23T06:53:16;101075.64;;;10.22;38.88
64139;BME280;50435;43.700;-79.318;2023-05-23T06:55:43;101076.65;;;11.10;38.95
64139;BME280;50435;43.700;-79.318;2023-05-23T06:58:10;101072.24;;;9.85;38.97
64139;BME280;50435;43.700;-79.318;2023-05-23T07:00:38;101075.31;;;11.11;39.06
64139;BME280;50435;43.700;-79.318;2023-05-23T07:03:06;101076.49;;;10.55;39.19
64139;BME280;50435;43.700;-79.318;2023-05-23T07:05:33;101071.92;;;10.95;39.30
64139;BME280;50435;43.700;-79.318;2023-05-23T07:08:01;101073.35;;;11.38;39.34
64139;BME280;50435;43.700;-79.318;2023-05-23T07:10:28;101072.31;;;10.35;39.42
64139;BME280;50435;43.700;-79.318;2023-05-23T07:12:56;101073.49;;;10.74;39.71
64139;BME280;50435;43.700;-79.318;2023-05-23T07:15:23;101072.84;;;10.42;39.21
64139;BME280;50435;43.700;-79.318;2023-05-23T07:17:50;101074.76;;;10.98;39.33
64139;BME280;50435;43.700;-79.318;2023-05-23T07:20:17;101072.82;;;9.51;39.72
64139;BME280;50435;43.700;-79.318;2023-05-23T07:22:45;101073.71;;;10.74;39.58
64139;BME280;50435;43.700;-79.318;2023-05-23T07:25:13;101072.06;;;9.12;39.74
64139;BME280;50435;43.700;-79.318;2023-05-23T07:27:40;101068.09;;;10.64;39.83
64139;BME280;50435;43.700;-79.318;2023-05-23T07:30:08;101065.10;;;9.81;39.53
64139;BME280;50435;43.700;-79.318;2023-05-23T07:32:35;101062.06;;;10.78;39.68
64139;BME280;50435;43.700;-79.318;2023-05-23T07:35:03;101063.26;;;10.63;39.88
64139;BME280;50435;43.700;-79.318;2023-05-23T07:37:30;101067.16;;;10.50;39.86
64139;BME280;50435;43.700;-79.318;2023-05-23T07:39:57;101066.25;;;11.17;39.80
64139;BME280;50435;43.700;-79.318;2023-05-23T07:42:24;101067.60;;;10.20;40.13
64139;BME280;50435;43.700;-79.318;2023-05-23T07:44:52;101067.46;;;10.90;40.23
64139;BME280;50435;43.700;-79.318;2023-05-23T07:47:19;101065.44;;;10.10;40.30
64139;BME280;50435;43.700;-79.318;2023-05-23T07:49:46;101066.61;;;10.54;40.26
64139;BME280;50435;43.700;-79.318;2023-05-23T07:52:14;101066.51;;;8.78;40.40
64139;BME280;50435;43.700;-79.318;2023-05-23T07:54:42;101071.62;;;10.30;40.78
64139;BME280;50435;43.700;-79.318;2023-05-23T07:57:09;101068.10;;;9.17;40.72
64139;BME280;50435;43.700;-79.318;2023-05-23T07:59:37;101068.46;;;10.38;40.67
64139;BME280;50435;43.700;-79.318;2023-05-23T08:02:05;101069.31;;;9.78;40.93
64139;BME280;50435;43.700;-79.318;2023-05-23T08:04:32;101073.56;;;10.22;40.61
64139;BME280;50435;43.700;-79.318;2023-05-23T08:07:00;101076.80;;;10.31;40.93
64139;BME280;50435;43.700;-79.318;2023-05-23T08:09:27;101077.99;;;9.71;40.99
64139;BME280;50435;43.700;-79.318;2023-05-23T08:11:55;101079.22;;;10.02;40.96
64139;BME280;50435;43.700;-79.318;2023-05-23T08:14:22;101077.48;;;9.49;41.14
64139;BME280;50435;43.700;-79.318;2023-05-23T08:16:50;101077.09;;;10.41;40.52
64139;BME280;50435;43.700;-79.318;2023-05-23T08:19:17;101079.67;;;9.44;40.96
64139;BME280;50435;43.700;-79.318;2023-05-23T08:21:44;101081.56;;;10.01;41.22
64139;BME280;50435;43.700;-79.318;2023-05-23T08:24:12;101081.38;;;9.26;40.98
64139;BME280;50435;43.700;-79.318;2023-05-23T08:26:39;101082.65;;;10.18;41.45
64139;BME280;50435;43.700;-79.318;2023-05-23T08:29:07;101077.75;;;8.76;41.26
64139;BME280;50435;43.700;-79.318;2023-05-23T08:31:34;101079.17;;;9.72;41.25
64139;BME280;50435;43.700;-79.318;2023-05-23T08:34:02;101082.78;;;9.97;41.30
64139;BME280;50435;43.700;-79.318;2023-05-23T08:36:29;101084.32;;;9.70;41.38
64139;BME280;50435;43.700;-79.318;2023-05-23T08:38:57;101088.34;;;9.85;41.40
64139;BME280;50435;43.700;-79.318;2023-05-23T08:41:25;101089.06;;;9.96;41.27
64139;BME280;50435;43.700;-79.318;2023-05-23T08:43:53;101093.14;;;10.29;41.27
64139;BME280;50435;43.700;-79.318;2023-05-23T08:46:22;101093.55;;;9.08;41.47
64139;BME280;50435;43.700;-79.318;2023-05-23T08:48:51;101094.27;;;10.14;41.43
64139;BME280;50435;43.700;-79.318;2023-05-23T08:51:21;101092.26;;;9.60;41.43
64139;BME280;50435;43.700;-79.318;2023-05-23T08:53:48;101090.95;;;10.10;40.99
64139;BME280;50435;43.700;-79.318;2023-05-23T08:56:16;101091.95;;;9.66;41.41
64139;BME280;50435;43.700;-79.318;2023-05-23T08:58:45;101093.04;;;10.10;41.21
64139;BME280;50435;43.700;-79.318;2023-05-23T09:01:13;101100.20;;;8.65;41.50
64139;BME280;50435;43.700;-79.318;2023-05-23T09:03:40;101097.86;;;10.16;41.02
64139;BME280;50435;43.700;-79.318;2023-05-23T09:06:09;101097.82;;;9.10;41.42
64139;BME280;50435;43.700;-79.318;2023-05-23T09:08:37;101095.77;;;10.17;41.10
64139;BME280;50435;43.700;-79.318;2023-05-23T09:11:05;101097.04;;;9.71;41.06
64139;BME280;50435;43.700;-79.318;2023-05-23T09:13:33;101097.60;;;9.98;41.44
64139;BME280;50435;43.700;-79.318;2023-05-23T09:16:02;101092.73;;;9.98;41.47
64139;BME280;50435;43.700;-79.318;2023-05-23T09:18:33;101092.52;;;9.97;41.41
64139;BME280;50435;43.700;-79.318;2023-05-23T09:21:01;101095.36;;;9.74;41.75
64139;BME280;50435;43.700;-79.318;2023-05-23T09:23:29;101102.57;;;9.45;41.41
64139;BME280;50435;43.700;-79.318;2023-05-23T09:26:01;101104.06;;;10.02;41.34
64139;BME280;50435;43.700;-79.318;2023-05-23T09:28:29;101101.85;;;9.34;41.73
64139;BME280;50435;43.700;-79.318;2023-05-23T09:30:58;101104.54;;;9.96;41.39
64139;BME280;50435;43.700;-79.318;2023-05-23T09:33:35;101103.67;;;9.47;41.69
64139;BME280;50435;43.700;-79.318;2023-05-23T09:36:03;101101.29;;;10.02;41.60
64139;BME280;50435;43.700;-79.318;2023-05-23T09:38:31;101103.53;;;9.88;41.43
64139;BME280;50435;43.700;-79.318;2023-05-23T09:40:59;101100.37;;;9.98;41.36
64139;BME280;50435;43.700;-79.318;2023-05-23T09:43:28;101098.69;;;9.57;41.40
64139;BME280;50435;43.700;-79.318;2023-05-23T09:46:00;101103.19;;;9.82;41.42
64139;BME280;50435;43.700;-79.318;2023-05-23T09:48:28;101103.31;;;9.76;41.58
64139;BME280;50435;43.700;-79.318;2023-05-23T09:50:55;101100.96;;;9.83;41.35
64139;BME280;50435;43.700;-79.318;2023-05-23T09:53:22;101101.67;;;9.19;41.68
64139;BME280;50435;43.700;-79.318;2023-05-23T09:55:50;101108.31;;;9.79;41.49
64139;BME280;50435;43.700;-79.318;2023-05-23T09:58:20;101110.97;;;9.36;41.43
64139;BME280;50435;43.700;-79.318;2023-05-23T10:00:50;101111.45;;;9.92;41.30
64139;BME280;50435;43.700;-79.318;2023-05-23T10:03:19;101111.20;;;9.67;41.81
64139;BME280;50435;43.700;-79.318;2023-05-23T10:05:50;101109.83;;;9.65;41.75
64139;BME280;50435;43.700;-79.318;2023-05-23T10:08:22;101113.35;;;8.97;42.02
64139;BME280;50435;43.700;-79.318;2023-05-23T10:12:54;101117.87;;;9.82;42.20
64139;BME280;50435;43.700;-79.318;2023-05-23T10:15:25;101119.58;;;9.16;42.17
64139;BME280;50435;43.700;-79.318;2023-05-23T10:18:03;101118.37;;;9.65;42.16
64139;BME280;50435;43.700;-79.318;2023-05-23T10:20:33;101119.09;;;9.44;42.07
64139;BME280;50435;43.700;-79.318;2023-05-23T10:23:02;101119.60;;;9.54;42.03
64139;BME280;50435;43.700;-79.318;2023-05-23T10:25:30;101119.90;;;9.50;41.94
64139;BME280;50435;43.700;-79.318;2023-05-23T10:27:59;101120.19;;;9.71;42.05
64139;BME280;50435;43.700;-79.318;2023-05-23T10:30:27;101115.42;;;9.38;41.59
64139;BME280;50435;43.700;-79.318;2023-05-23T10:32:55;101113.37;;;9.54;41.87
64139;BME280;50435;43.700;-79.318;2023-05-23T10:35:40;101115.33;;;9.19;41.65
64139;BME280;50435;43.700;-79.318;2023-05-23T10:38:17;101115.78;;;8.59;41.65
64139;BME280;50435;43.700;-79.318;2023-05-23T10:40:56;101115.07;;;9.81;41.77
64139;BME280;50435;43.700;-79.318;2023-05-23T10:43:30;101116.32;;;9.03;41.90
64139;BME280;50435;43.700;-79.318;2023-05-23T10:46:00;101117.79;;;9.58;41.74
64139;BME280;50435;43.700;-79.318;2023-05-23T10:48:32;101120.48;;;9.38;41.39
64139;BME280;50435;43.700;-79.318;2023-05-23T10:51:05;101124.04;;;9.74;41.55
64139;BME280;50435;43.700;-79.318;2023-05-23T10:53:36;101120.99;;;9.69;41.65
64139;BME280;50435;43.700;-79.318;2023-05-23T10:56:06;101118.38;;;9.38;41.75
64139;BME280;50435;43.700;-79.318;2023-05-23T10:58:35;101116.77;;;9.79;41.46
64139;BME280;50435;43.700;-79.318;2023-05-23T11:01:06;101121.75;;;10.06;41.03
64139;BME280;50435;43.700;-79.318;2023-05-23T11:03:35;101122.71;;;9.41;41.28
64139;BME280;50435;43.700;-79.318;2023-05-23T11:06:04;101121.61;;;10.02;40.87
64139;BME280;50435;43.700;-79.318;2023-05-23T11:08:40;101120.94;;;9.78;41.05
64139;BME280;50435;43.700;-79.318;2023-05-23T11:11:07;101114.13;;;9.12;40.82
64139;BME280;50435;43.700;-79.318;2023-05-23T11:14:07;101115.96;;;10.05;40.51
64139;BME280;50435;43.700;-79.318;2023-05-23T11:16:40;101115.02;;;10.43;40.14
64139;BME280;50435;43.700;-79.318;2023-05-23T11:19:25;101111.46;;;9.05;40.54
64139;BME280;50435;43.700;-79.318;2023-05-23T11:21:54;101114.39;;;9.96;40.52
64139;BME280;50435;43.700;-79.318;2023-05-23T11:24:22;101118.30;;;9.66;40.43
64139;BME280;50435;43.700;-79.318;2023-05-23T11:26:52;101116.02;;;9.87;40.99
64139;BME280;50435;43.700;-79.318;2023-05-23T11:29:20;101119.07;;;9.32;40.23
64139;BME280;50435;43.700;-79.318;2023-05-23T11:31:48;101118.25;;;10.20;40.48
64139;BME280;50435;43.700;-79.318;2023-05-23T11:34:15;101115.27;;;9.18;40.58
64139;BME280;50435;43.700;-79.318;2023-05-23T11:36:43;101118.45;;;10.10;40.55
64139;BME280;50435;43.700;-79.318;2023-05-23T11:39:12;101116.92;;;8.94;40.16
64139;BME280;50435;43.700;-79.318;2023-05-23T11:41:41;101115.17;;;10.86;39.85
64139;BME280;50435;43.700;-79.318;2023-05-23T11:44:11;101113.05;;;9.47;39.79
64139;BME280;50435;43.700;-79.318;2023-05-23T11:46:39;101113.80;;;10.83;39.94
64139;BME280;50435;43.700;-79.318;2023-05-23T11:49:10;101114.09;;;9.97;40.13
64139;BME280;50435;43.700;-79.318;2023-05-23T11:51:38;101111.43;;;10.44;40.93
64139;BME280;50435;43.700;-79.318;2023-05-23T11:54:06;101114.51;;;9.90;41.81
64139;BME280;50435;43.700;-79.318;2023-05-23T11:56:39;101115.42;;;10.85;41.31
64139;BME280;50435;43.700;-79.318;2023-05-23T11:59:06;101115.55;;;10.07;40.13
64139;BME280;50435;43.700;-79.318;2023-05-23T12:01:36;101117.00;;;10.76;40.29
64139;BME280;50435;43.700;-79.318;2023-05-23T12:04:09;101115.94;;;11.03;39.98
64139;BME280;50435;43.700;-79.318;2023-05-23T12:06:38;101118.86;;;10.98;39.38
64139;BME280;50435;43.700;-79.318;2023-05-23T12:09:06;101115.06;;;10.68;38.87
64139;BME280;50435;43.700;-79.318;2023-05-23T12:11:34;101113.56;;;11.38;38.25
64139;BME280;50435;43.700;-79.318;2023-05-23T12:14:01;101115.56;;;11.73;38.67
64139;BME280;50435;43.700;-79.318;2023-05-23T12:16:29;101110.95;;;11.67;37.98
64139;BME280;50435;43.700;-79.318;2023-05-23T12:18:56;101112.23;;;12.04;37.38
64139;BME280;50435;43.700;-79.318;2023-05-23T12:21:25;101115.14;;;11.69;37.68
64139;BME280;50435;43.700;-79.318;2023-05-23T12:23:53;101117.05;;;12.04;37.33
64139;BME280;50435;43.700;-79.318;2023-05-23T12:26:22;101112.48;;;11.29;37.01
64139;BME280;50435;43.700;-79.318;2023-05-23T12:28:49;101112.28;;;12.28;36.19
64139;BME280;50435;43.700;-79.318;2023-05-23T12:31:19;101112.47;;;11.74;36.86
64139;BME280;50435;43.700;-79.318;2023-05-23T12:33:51;101118.75;;;12.44;35.90
64139;BME280;50435;43.700;-79.318;2023-05-23T12:36:23;101122.80;;;12.13;36.11
64139;BME280;50435;43.700;-79.318;2023-05-23T12:38:51;101124.54;;;12.58;36.17
64139;BME280;50435;43.700;-79.318;2023-05-23T12:41:20;101123.37;;;11.63;35.78